sensor_id;sensor_type;location;lat;lon;timestamp;P1;durP1;ratioP1;P2;durP2;ratioP2
45368;SDS011;51342;55.250;37.668;2023-07-20T00:01:30;3.72;;;1.77;;
45368;SDS011;51342;55.250;37.668;2023-07-20T00:04:01;2.35;;;1.67;;
45368;SDS011;51342;55.250;37.668;2023-07-20T00:06:33;6.35;;;1.50;;
45368;SDS011;51342;55.250;37.668;2023-07-20T00:09:04;9.40;;;2.67;;
45368;SDS011;51342;55.250;37.668;2023-07-20T00:11:36;4.03;;;1.45;;
45368;SDS011;51342;55.250;37.668;2023-07-20T00:14:09;3.75;;;1.60;;
45368;SDS011;51342;55.250;37.668;2023-07-20T00:16:40;4.18;;;2.00;;
45368;SDS011;51342;55.250;37.668;2023-07-20T00:19:12;3.67;;;1.95;;
45368;SDS011;51342;55.250;37.668;2023-07-20T00:21:44;5.47;;;2.00;;
45368;SDS011;51342;55.250;37.668;2023-07-20T00:24:16;5.70;;;2.28;;
45368;SDS011;51342;55.250;37.668;2023-07-20T00:26:47;4.55;;;2.20;;
45368;SDS011;51342;55.250;37.668;2023-07-20T00:29:20;3.22;;;1.95;;
45368;SDS011;51342;55.250;37.668;2023-07-20T00:31:51;4.72;;;2.42;;
45368;SDS011;51342;55.250;37.668;2023-07-20T00:34:22;3.30;;;2.08;;
45368;SDS011;51342;55.250;37.668;2023-07-20T00:36:54;3.70;;;2.42;;
45368;SDS011;51342;55.250;37.668;2023-07-20T00:39:27;3.72;;;1.83;;
45368;SDS011;51342;55.250;37.668;2023-07-20T00:41:59;7.43;;;1.65;;
45368;SDS011;51342;55.250;37.668;2023-07-20T00:44:31;4.30;;;2.47;;
45368;SDS011;51342;55.250;37.668;2023-07-20T00:47:04;3.67;;;1.80;;
45368;SDS011;51342;55.250;37.668;2023-07-20T00:49:37;5.30;;;2.20;;
45368;SDS011;51342;55.250;37.668;2023-07-20T00:52:10;4.13;;;1.83;;
45368;SDS011;51342;55.250;37.668;2023-07-20T00:54:47;7.07;;;1.88;;
45368;SDS011;51342;55.250;37.668;2023-07-20T00:57:19;5.28;;;2.00;;
45368;SDS011;51342;55.250;37.668;2023-07-20T00:59:51;3.47;;;1.75;;
45368;SDS011;51342;55.250;37.668;2023-07-20T01:02:22;4.75;;;1.98;;
45368;SDS011;51342;55.250;37.668;2023-07-20T01:04:56;6.95;;;1.88;;
45368;SDS011;51342;55.250;37.668;2023-07-20T01:07:32;3.22;;;1.90;;
45368;SDS011;51342;55.250;37.668;2023-07-20T01:10:20;1.95;;;1.48;;
45368;SDS011;51342;55.250;37.668;2023-07-20T01:13:11;3.58;;;2.03;;
45368;SDS011;51342;55.250;37.668;2023-07-20T01:16:19;3.63;;;1.65;;
45368;SDS011;51342;55.250;37.668;2023-07-20T01:18:43;3.50;;;1.50;;
45368;SDS011;51342;55.250;37.668;2023-07-20T01:21:22;5.45;;;1.60;;
45368;SDS011;51342;55.250;37.668;2023-07-20T01:32:49;3.00;;;1.88;;
45368;SDS011;51342;55.250;37.668;2023-07-20T01:35:27;1.98;;;1.48;;
45368;SDS011;51342;55.250;37.668;2023-07-20T01:42:05;2.88;;;1.50;;
45368;SDS011;51342;55.250;37.668;2023-07-20T01:44:37;5.13;;;2.00;;
45368;SDS011;51342;55.250;37.668;2023-07-20T01:47:09;3.80;;;1.70;;
45368;SDS011;51342;55.250;37.668;2023-07-20T01:49:40;3.45;;;1.83;;
45368;SDS011;51342;55.250;37.668;2023-07-20T01:52:12;4.97;;;1.90;;
45368;SDS011;51342;55.250;37.668;2023-07-20T01:54:43;3.78;;;1.90;;
45368;SDS011;51342;55.250;37.668;2023-07-20T01:57:15;3.33;;;1.70;;
45368;SDS011;51342;55.250;37.668;2023-07-20T01:59:46;3.50;;;1.88;;
45368;SDS011;51342;55.250;37.668;2023-07-20T02:02:18;3.33;;;1.90;;
45368;SDS011;51342;55.250;37.668;2023-07-20T02:04:50;4.95;;;1.90;;
45368;SDS011;51342;55.250;37.668;2023-07-20T02:07:21;4.00;;;1.95;;
45368;SDS011;51342;55.250;37.668;2023-07-20T02:09:53;4.53;;;2.00;;
45368;SDS011;51342;55.250;37.668;2023-07-20T02:12:24;3.65;;;3.05;;
45368;SDS011;51342;55.250;37.668;2023-07-20T02:14:55;2.92;;;1.70;;
45368;SDS011;51342;55.250;37.668;2023-07-20T02:17:27;4.18;;;1.95;;
45368;SDS011;51342;55.250;37.668;2023-07-20T02:19:58;7.68;;;2.13;;
45368;SDS011;51342;55.250;37.668;2023-07-20T02:22:30;3.15;;;1.60;;
45368;SDS011;51342;55.250;37.668;2023-07-20T02:25:01;4.47;;;2.05;;
45368;SDS011;51342;55.250;37.668;2023-07-20T02:27:35;2.92;;;1.60;;
45368;SDS011;51342;55.250;37.668;2023-07-20T02:30:07;3.65;;;1.50;;
45368;SDS011;51342;55.250;37.668;2023-07-20T02:32:40;4.20;;;1.38;;
45368;SDS011;51342;55.250;37.668;2023-07-20T02:35:11;4.07;;;1.38;;
45368;SDS011;51342;55.250;37.668;2023-07-20T02:37:43;3.03;;;1.70;;
45368;SDS011;51342;55.250;37.668;2023-07-20T02:40:15;2.47;;;1.35;;
45368;SDS011;51342;55.250;37.668;2023-07-20T02:42:47;2.95;;;1.33;;
45368;SDS011;51342;55.250;37.668;2023-07-20T02:45:18;3.75;;;1.50;;
45368;SDS011;51342;55.250;37.668;2023-07-20T02:47:49;1.48;;;1.17;;
45368;SDS011;51342;55.250;37.668;2023-07-20T02:50:22;1.73;;;1.02;;
45368;SDS011;51342;55.250;37.668;2023-07-20T02:52:54;5.25;;;1.48;;
45368;SDS011;51342;55.250;37.668;2023-07-20T02:55:25;2.90;;;1.40;;
45368;SDS011;51342;55.250;37.668;2023-07-20T02:57:57;3.22;;;1.38;;
45368;SDS011;51342;55.250;37.668;2023-07-20T03:00:28;3.22;;;1.20;;
45368;SDS011;51342;55.250;37.668;2023-07-20T03:02:59;3.92;;;1.48;;
45368;SDS011;51342;55.250;37.668;2023-07-20T03:05:31;4.03;;;1.50;;
45368;SDS011;51342;55.250;37.668;2023-07-20T03:08:02;4.63;;;1.30;;
45368;SDS011;51342;55.250;37.668;2023-07-20T03:10:40;3.60;;;1.30;;
45368;SDS011;51342;55.250;37.668;2023-07-20T03:13:12;2.17;;;1.27;;
45368;SDS011;51342;55.250;37.668;2023-07-20T03:15:45;3.13;;;1.23;;
45368;SDS011;51342;55.250;37.668;2023-07-20T03:18:16;3.00;;;1.23;;
45368;SDS011;51342;55.250;37.668;2023-07-20T03:20:48;2.92;;;1.00;;
45368;SDS011;51342;55.250;37.668;2023-07-20T03:23:19;1.75;;;1.15;;
45368;SDS011;51342;55.250;37.668;2023-07-20T03:25:51;2.67;;;1.13;;
45368;SDS011;51342;55.250;37.668;2023-07-20T03:28:26;2.60;;;1.00;;
45368;SDS011;51342;55.250;37.668;2023-07-20T03:30:57;2.55;;;1.35;;
45368;SDS011;51342;55.250;37.668;2023-07-20T03:33:31;2.50;;;1.10;;
45368;SDS011;51342;55.250;37.668;2023-07-20T03:36:03;5.55;;;1.30;;
45368;SDS011;51342;55.250;37.668;2023-07-20T03:38:36;3.40;;;1.10;;
45368;SDS011;51342;55.250;37.668;2023-07-20T03:44:11;5.10;;;1.27;;
45368;SDS011;51342;55.250;37.668;2023-07-20T03:46:43;2.08;;;1.02;;
45368;SDS011;51342;55.250;37.668;2023-07-20T03:49:15;2.33;;;1.17;;
45368;SDS011;51342;55.250;37.668;2023-07-20T03:51:46;3.13;;;1.27;;
45368;SDS011;51342;55.250;37.668;2023-07-20T03:54:18;3.80;;;1.27;;
45368;SDS011;51342;55.250;37.668;2023-07-20T03:56:49;3.05;;;1.23;;
45368;SDS011;51342;55.250;37.668;2023-07-20T03:59:21;2.67;;;0.95;;
45368;SDS011;51342;55.250;37.668;2023-07-20T04:01:52;1.90;;;1.00;;
45368;SDS011;51342;55.250;37.668;2023-07-20T04:04:24;3.92;;;1.00;;
45368;SDS011;51342;55.250;37.668;2023-07-20T04:06:55;4.55;;;1.20;;
45368;SDS011;51342;55.250;37.668;2023-07-20T04:09:27;3.28;;;1.00;;
45368;SDS011;51342;55.250;37.668;2023-07-20T04:11:58;3.22;;;0.98;;
45368;SDS011;51342;55.250;37.668;2023-07-20T04:14:31;1.77;;;0.88;;
45368;SDS011;51342;55.250;37.668;2023-07-20T04:17:02;3.15;;;0.90;;
45368;SDS011;51342;55.250;37.668;2023-07-20T04:19:34;2.78;;;1.05;;
45368;SDS011;51342;55.250;37.668;2023-07-20T04:22:05;2.65;;;1.05;;
45368;SDS011;51342;55.250;37.668;2023-07-20T04:24:37;2.30;;;0.98;;
45368;SDS011;51342;55.250;37.668;2023-07-20T04:27:08;3.03;;;1.20;;
45368;SDS011;51342;55.250;37.668;2023-07-20T04:29:40;2.80;;;1.30;;
45368;SDS011;51342;55.250;37.668;2023-07-20T04:32:11;3.45;;;1.23;;
45368;SDS011;51342;55.250;37.668;2023-07-20T04:34:43;2.22;;;1.10;;
45368;SDS011;51342;55.250;37.668;2023-07-20T04:37:14;3.78;;;1.15;;
45368;SDS011;51342;55.250;37.668;2023-07-20T04:39:46;1.40;;;0.95;;
45368;SDS011;51342;55.250;37.668;2023-07-20T04:42:18;2.30;;;1.10;;
45368;SDS011;51342;55.250;37.668;2023-07-20T04:44:51;3.63;;;0.85;;
45368;SDS011;51342;55.250;37.668;2023-07-20T04:47:23;4.20;;;1.15;;
45368;SDS011;51342;55.250;37.668;2023-07-20T04:49:56;3.60;;;1.40;;
45368;SDS011;51342;55.250;37.668;2023-07-20T04:52:27;3.67;;;1.05;;
45368;SDS011;51342;55.250;37.668;2023-07-20T04:54:59;2.15;;;0.70;;
45368;SDS011;51342;55.250;37.668;2023-07-20T04:57:30;4.03;;;1.05;;
45368;SDS011;51342;55.250;37.668;2023-07-20T05:00:05;2.33;;;0.90;;
45368;SDS011;51342;55.250;37.668;2023-07-20T05:02:37;2.92;;;0.88;;
45368;SDS011;51342;55.250;37.668;2023-07-20T05:05:09;3.72;;;1.10;;
45368;SDS011;51342;55.250;37.668;2023-07-20T05:07:40;2.55;;;0.90;;
45368;SDS011;51342;55.250;37.668;2023-07-20T05:10:12;1.65;;;0.90;;
45368;SDS011;51342;55.250;37.668;2023-07-20T05:12:46;2.30;;;0.93;;
45368;SDS011;51342;55.250;37.668;2023-07-20T05:15:18;2.53;;;0.70;;
45368;SDS011;51342;55.250;37.668;2023-07-20T05:17:49;2.42;;;0.95;;
45368;SDS011;51342;55.250;37.668;2023-07-20T05:20:21;3.58;;;1.00;;
45368;SDS011;51342;55.250;37.668;2023-07-20T05:22:52;2.70;;;1.02;;
45368;SDS011;51342;55.250;37.668;2023-07-20T05:25:24;2.47;;;1.00;;
45368;SDS011;51342;55.250;37.668;2023-07-20T05:27:55;2.78;;;0.93;;
45368;SDS011;51342;55.250;37.668;2023-07-20T05:30:26;2.90;;;1.00;;
45368;SDS011;51342;55.250;37.668;2023-07-20T05:33:00;2.28;;;0.90;;
45368;SDS011;51342;55.250;37.668;2023-07-20T05:35:31;2.20;;;0.90;;
45368;SDS011;51342;55.250;37.668;2023-07-20T05:38:02;1.92;;;1.30;;
45368;SDS011;51342;55.250;37.668;2023-07-20T05:44:17;2.45;;;1.00;;
45368;SDS011;51342;55.250;37.668;2023-07-20T05:46:49;1.92;;;1.00;;
45368;SDS011;51342;55.250;37.668;2023-07-20T05:49:20;1.95;;;0.85;;
45368;SDS011;51342;55.250;37.668;2023-07-20T05:51:51;2.35;;;1.00;;
45368;SDS011;51342;55.250;37.668;2023-07-20T05:54:26;2.42;;;1.08;;
45368;SDS011;51342;55.250;37.668;2023-07-20T05:56:58;1.15;;;0.68;;
45368;SDS011;51342;55.250;37.668;2023-07-20T05:59:29;4.80;;;1.20;;
45368;SDS011;51342;55.250;37.668;2023-07-20T06:02:00;3.22;;;1.00;;
45368;SDS011;51342;55.250;37.668;2023-07-20T06:04:32;2.85;;;0.85;;
45368;SDS011;51342;55.250;37.668;2023-07-20T06:07:03;1.73;;;0.90;;
45368;SDS011;51342;55.250;37.668;2023-07-20T06:09:34;4.38;;;1.17;;
45368;SDS011;51342;55.250;37.668;2023-07-20T06:12:06;6.65;;;1.63;;
45368;SDS011;51342;55.250;37.668;2023-07-20T06:14:38;2.88;;;1.10;;
45368;SDS011;51342;55.250;37.668;2023-07-20T06:17:09;1.98;;;1.00;;
45368;SDS011;51342;55.250;37.668;2023-07-20T06:19:41;2.53;;;0.75;;
45368;SDS011;51342;55.250;37.668;2023-07-20T06:22:12;2.92;;;0.93;;
45368;SDS011;51342;55.250;37.668;2023-07-20T06:24:43;2.50;;;0.80;;
45368;SDS011;51342;55.250;37.668;2023-07-20T06:27:15;1.52;;;0.80;;
45368;SDS011;51342;55.250;37.668;2023-07-20T06:29:46;2.70;;;0.82;;
45368;SDS011;51342;55.250;37.668;2023-07-20T06:32:17;2.97;;;0.90;;
45368;SDS011;51342;55.250;37.668;2023-07-20T06:34:49;2.78;;;0.98;;
45368;SDS011;51342;55.250;37.668;2023-07-20T06:37:20;2.45;;;0.93;;
45368;SDS011;51342;55.250;37.668;2023-07-20T06:39:51;1.98;;;0.85;;
45368;SDS011;51342;55.250;37.668;2023-07-20T06:42:23;2.17;;;0.90;;
45368;SDS011;51342;55.250;37.668;2023-07-20T06:44:54;3.08;;;0.90;;
45368;SDS011;51342;55.250;37.668;2023-07-20T06:47:26;1.45;;;0.93;;
45368;SDS011;51342;55.250;37.668;2023-07-20T06:49:57;2.80;;;1.00;;
45368;SDS011;51342;55.250;37.668;2023-07-20T06:52:28;3.22;;;1.00;;
45368;SDS011;51342;55.250;37.668;2023-07-20T06:55:00;2.95;;;0.70;;
45368;SDS011;51342;55.250;37.668;2023-07-20T06:57:31;2.53;;;1.00;;
45368;SDS011;51342;55.250;37.668;2023-07-20T07:00:03;2.72;;;0.80;;
45368;SDS011;51342;55.250;37.668;2023-07-20T07:02:35;3.40;;;1.00;;
45368;SDS011;51342;55.250;37.668;2023-07-20T07:05:06;4.00;;;1.00;;
45368;SDS011;51342;55.250;37.668;2023-07-20T07:07:38;2.45;;;0.70;;
45368;SDS011;51342;55.250;37.668;2023-07-20T07:10:09;2.75;;;0.98;;
45368;SDS011;51342;55.250;37.668;2023-07-20T07:12:41;2.38;;;1.42;;
45368;SDS011;51342;55.250;37.668;2023-07-20T07:15:12;1.65;;;0.70;;
45368;SDS011;51342;55.250;37.668;2023-07-20T07:17:43;2.28;;;1.20;;
45368;SDS011;51342;55.250;37.668;2023-07-20T07:20:15;2.00;;;0.90;;
45368;SDS011;51342;55.250;37.668;2023-07-20T07:22:46;4.88;;;0.88;;
45368;SDS011;51342;55.250;37.668;2023-07-20T07:25:18;3.92;;;0.95;;
45368;SDS011;51342;55.250;37.668;2023-07-20T07:27:50;5.35;;;1.30;;
45368;SDS011;51342;55.250;37.668;2023-07-20T07:30:23;4.22;;;1.25;;
45368;SDS011;51342;55.250;37.668;2023-07-20T07:32:54;10.68;;;1.15;;
45368;SDS011;51342;55.250;37.668;2023-07-20T07:35:25;3.10;;;0.82;;
45368;SDS011;51342;55.250;37.668;2023-07-20T07:37:57;2.65;;;1.00;;
45368;SDS011;51342;55.250;37.668;2023-07-20T07:40:28;3.42;;;0.90;;
45368;SDS011;51342;55.250;37.668;2023-07-20T07:45:56;4.90;;;0.90;;
45368;SDS011;51342;55.250;37.668;2023-07-20T07:48:28;2.35;;;0.63;;
45368;SDS011;51342;55.250;37.668;2023-07-20T07:50:59;2.75;;;1.33;;
45368;SDS011;51342;55.250;37.668;2023-07-20T07:53:31;2.47;;;1.00;;
45368;SDS011;51342;55.250;37.668;2023-07-20T07:56:06;2.33;;;1.63;;
45368;SDS011;51342;55.250;37.668;2023-07-20T07:58:38;2.88;;;0.77;;
45368;SDS011;51342;55.250;37.668;2023-07-20T08:01:09;2.63;;;0.73;;
45368;SDS011;51342;55.250;37.668;2023-07-20T08:03:41;2.50;;;0.95;;
45368;SDS011;51342;55.250;37.668;2023-07-20T08:06:13;2.20;;;0.77;;
45368;SDS011;51342;55.250;37.668;2023-07-20T08:08:45;2.95;;;0.90;;
45368;SDS011;51342;55.250;37.668;2023-07-20T08:11:16;1.25;;;0.70;;
45368;SDS011;51342;55.250;37.668;2023-07-20T08:13:48;1.45;;;0.70;;
45368;SDS011;51342;55.250;37.668;2023-07-20T08:16:20;3.13;;;0.80;;
45368;SDS011;51342;55.250;37.668;2023-07-20T08:18:52;2.30;;;0.95;;
45368;SDS011;51342;55.250;37.668;2023-07-20T08:21:23;1.00;;;0.60;;
45368;SDS011;51342;55.250;37.668;2023-07-20T08:23:55;2.58;;;0.98;;
45368;SDS011;51342;55.250;37.668;2023-07-20T08:26:26;3.33;;;0.85;;
45368;SDS011;51342;55.250;37.668;2023-07-20T08:28:58;3.90;;;0.70;;
45368;SDS011;51342;55.250;37.668;2023-07-20T08:31:29;3.78;;;0.90;;
45368;SDS011;51342;55.250;37.668;2023-07-20T08:34:00;2.13;;;1.00;;
45368;SDS011;51342;55.250;37.668;2023-07-20T08:36:32;1.45;;;0.80;;
45368;SDS011;51342;55.250;37.668;2023-07-20T08:39:03;3.22;;;0.80;;
45368;SDS011;51342;55.250;37.668;2023-07-20T08:41:35;1.63;;;0.80;;
45368;SDS011;51342;55.250;37.668;2023-07-20T08:44:07;1.70;;;0.88;;
45368;SDS011;51342;55.250;37.668;2023-07-20T08:46:39;2.13;;;0.90;;
45368;SDS011;51342;55.250;37.668;2023-07-20T08:49:11;2.55;;;0.70;;
45368;SDS011;51342;55.250;37.668;2023-07-20T08:51:45;3.30;;;1.00;;
45368;SDS011;51342;55.250;37.668;2023-07-20T08:54:18;1.73;;;0.80;;
45368;SDS011;51342;55.250;37.668;2023-07-20T08:56:49;1.80;;;0.93;;
45368;SDS011;51342;55.250;37.668;2023-07-20T08:59:22;2.03;;;0.75;;
45368;SDS011;51342;55.250;37.668;2023-07-20T09:01:58;2.70;;;0.82;;
45368;SDS011;51342;55.250;37.668;2023-07-20T09:04:31;2.25;;;0.80;;
45368;SDS011;51342;55.250;37.668;2023-07-20T09:07:02;2.58;;;0.82;;
45368;SDS011;51342;55.250;37.668;2023-07-20T09:09:39;3.30;;;0.95;;
45368;SDS011;51342;55.250;37.668;2023-07-20T09:14:49;3.00;;;1.20;;
45368;SDS011;51342;55.250;37.668;2023-07-20T09:17:21;2.92;;;1.20;;
45368;SDS011;51342;55.250;37.668;2023-07-20T09:19:57;2.40;;;0.98;;
45368;SDS011;51342;55.250;37.668;2023-07-20T09:22:29;3.22;;;0.90;;
45368;SDS011;51342;55.250;37.668;2023-07-20T09:25:02;1.40;;;0.70;;
45368;SDS011;51342;55.250;37.668;2023-07-20T09:27:37;2.78;;;0.85;;
45368;SDS011;51342;55.250;37.668;2023-07-20T09:30:10;1.35;;;0.80;;
45368;SDS011;51342;55.250;37.668;2023-07-20T09:32:45;2.00;;;0.93;;
45368;SDS011;51342;55.250;37.668;2023-07-20T09:35:22;2.55;;;0.90;;
45368;SDS011;51342;55.250;37.668;2023-07-20T09:38:03;1.65;;;1.02;;
45368;SDS011;51342;55.250;37.668;2023-07-20T09:40:38;1.55;;;0.80;;
45368;SDS011;51342;55.250;37.668;2023-07-20T09:46:43;2.55;;;1.00;;
45368;SDS011;51342;55.250;37.668;2023-07-20T09:49:15;2.72;;;0.90;;
45368;SDS011;51342;55.250;37.668;2023-07-20T09:51:48;2.15;;;0.95;;
45368;SDS011;51342;55.250;37.668;2023-07-20T09:54:21;3.13;;;1.10;;
45368;SDS011;51342;55.250;37.668;2023-07-20T09:56:53;5.22;;;1.20;;
45368;SDS011;51342;55.250;37.668;2023-07-20T09:59:25;2.72;;;1.00;;
45368;SDS011;51342;55.250;37.668;2023-07-20T10:01:58;1.98;;;1.35;;
45368;SDS011;51342;55.250;37.668;2023-07-20T10:04:32;3.50;;;1.33;;
45368;SDS011;51342;55.250;37.668;2023-07-20T10:07:06;2.45;;;1.50;;
45368;SDS011;51342;55.250;37.668;2023-07-20T10:09:42;2.47;;;1.10;;
45368;SDS011;51342;55.250;37.668;2023-07-20T10:12:16;4.10;;;1.35;;
45368;SDS011;51342;55.250;37.668;2023-07-20T10:15:23;2.60;;;0.90;;
45368;SDS011;51342;55.250;37.668;2023-07-20T10:20:41;2.70;;;0.80;;
45368;SDS011;51342;55.250;37.668;2023-07-20T10:23:13;2.63;;;1.20;;
45368;SDS011;51342;55.250;37.668;2023-07-20T10:25:45;2.53;;;1.17;;
45368;SDS011;51342;55.250;37.668;2023-07-20T10:28:20;1.75;;;1.15;;
45368;SDS011;51342;55.250;37.668;2023-07-20T10:30:54;3.03;;;1.25;;
45368;SDS011;51342;55.250;37.668;2023-07-20T10:33:25;2.90;;;1.25;;
45368;SDS011;51342;55.250;37.668;2023-07-20T10:36:00;2.53;;;1.05;;
45368;SDS011;51342;55.250;37.668;2023-07-20T10:44:01;2.10;;;1.10;;
45368;SDS011;51342;55.250;37.668;2023-07-20T10:49:11;4.15;;;1.98;;
45368;SDS011;51342;55.250;37.668;2023-07-20T10:51:46;2.53;;;1.40;;
45368;SDS011;51342;55.250;37.668;2023-07-20T10:56:50;3.90;;;1.40;;
45368;SDS011;51342;55.250;37.668;2023-07-20T11:01:56;3.60;;;1.80;;
45368;SDS011;51342;55.250;37.668;2023-07-20T11:04:41;3.75;;;1.65;;
45368;SDS011;51342;55.250;37.668;2023-07-20T11:07:37;3.28;;;1.88;;
45368;SDS011;51342;55.250;37.668;2023-07-20T11:10:13;7.97;;;2.70;;
45368;SDS011;51342;55.250;37.668;2023-07-20T11:13:15;5.88;;;2.03;;
45368;SDS011;51342;55.250;37.668;2023-07-20T11:18:28;3.42;;;1.80;;
45368;SDS011;51342;55.250;37.668;2023-07-20T11:20:59;3.58;;;1.42;;
45368;SDS011;51342;55.250;37.668;2023-07-20T11:23:31;4.47;;;1.60;;
45368;SDS011;51342;55.250;37.668;2023-07-20T11:26:03;3.13;;;1.42;;
45368;SDS011;51342;55.250;37.668;2023-07-20T11:28:34;3.30;;;1.65;;
45368;SDS011;51342;55.250;37.668;2023-07-20T11:31:06;2.35;;;1.63;;
45368;SDS011;51342;55.250;37.668;2023-07-20T11:33:38;3.95;;;2.00;;
45368;SDS011;51342;55.250;37.668;2023-07-20T11:36:09;3.45;;;1.50;;
45368;SDS011;51342;55.250;37.668;2023-07-20T11:38:41;5.32;;;1.90;;
45368;SDS011;51342;55.250;37.668;2023-07-20T11:41:14;2.25;;;1.80;;
45368;SDS011;51342;55.250;37.668;2023-07-20T13:47:35;2.13;;;1.00;;
45368;SDS011;51342;55.250;37.668;2023-07-20T13:50:09;4.28;;;1.08;;
45368;SDS011;51342;55.250;37.668;2023-07-20T13:52:44;1.63;;;0.90;;
45368;SDS011;51342;55.250;37.668;2023-07-20T13:55:17;3.33;;;1.30;;
45368;SDS011;51342;55.250;37.668;2023-07-20T13:57:49;2.72;;;0.95;;
45368;SDS011;51342;55.250;37.668;2023-07-20T14:00:23;3.47;;;1.00;;
45368;SDS011;51342;55.250;37.668;2023-07-20T14:02:58;2.80;;;0.90;;
45368;SDS011;51342;55.250;37.668;2023-07-20T14:05:33;2.53;;;0.93;;
45368;SDS011;51342;55.250;37.668;2023-07-20T14:08:06;2.15;;;1.10;;
45368;SDS011;51342;55.250;37.668;2023-07-20T14:10:38;2.78;;;1.10;;
45368;SDS011;51342;55.250;37.668;2023-07-20T14:13:11;3.65;;;1.30;;
45368;SDS011;51342;55.250;37.668;2023-07-20T14:15:44;3.58;;;1.15;;
45368;SDS011;51342;55.250;37.668;2023-07-20T14:18:17;1.60;;;1.10;;
45368;SDS011;51342;55.250;37.668;2023-07-20T14:20:50;3.03;;;1.15;;
45368;SDS011;51342;55.250;37.668;2023-07-20T14:23:22;1.55;;;0.82;;
45368;SDS011;51342;55.250;37.668;2023-07-20T14:25:55;4.30;;;1.00;;
45368;SDS011;51342;55.250;37.668;2023-07-20T14:28:28;3.25;;;1.00;;
45368;SDS011;51342;55.250;37.668;2023-07-20T14:30:59;2.42;;;0.80;;
45368;SDS011;51342;55.250;37.668;2023-07-20T14:33:32;3.30;;;1.42;;
45368;SDS011;51342;55.250;37.668;2023-07-20T14:36:07;3.83;;;1.00;;
45368;SDS011;51342;55.250;37.668;2023-07-20T14:38:39;2.38;;;1.00;;
45368;SDS011;51342;55.250;37.668;2023-07-20T14:41:12;3.60;;;0.95;;
45368;SDS011;51342;55.250;37.668;2023-07-20T14:43:45;2.45;;;1.02;;
45368;SDS011;51342;55.250;37.668;2023-07-20T14:46:18;1.83;;;0.85;;
45368;SDS011;51342;55.250;37.668;2023-07-20T14:48:51;1.65;;;1.00;;
45368;SDS011;51342;55.250;37.668;2023-07-20T14:51:24;1.75;;;1.10;;
45368;SDS011;51342;55.250;37.668;2023-07-20T14:53:56;2.20;;;1.10;;
45368;SDS011;51342;55.250;37.668;2023-07-20T14:56:28;2.65;;;1.33;;
45368;SDS011;51342;55.250;37.668;2023-07-20T14:59:03;3.00;;;1.20;;
45368;SDS011;51342;55.250;37.668;2023-07-20T15:01:35;4.28;;;1.20;;
45368;SDS011;51342;55.250;37.668;2023-07-20T15:04:09;2.88;;;1.30;;
45368;SDS011;51342;55.250;37.668;2023-07-20T15:17:28;2.33;;;1.30;;
45368;SDS011;51342;55.250;37.668;2023-07-20T15:20:04;2.30;;;1.20;;
45368;SDS011;51342;55.250;37.668;2023-07-20T15:22:38;4.15;;;1.13;;
45368;SDS011;51342;55.250;37.668;2023-07-20T15:25:10;4.05;;;1.20;;
45368;SDS011;51342;55.250;37.668;2023-07-20T15:27:44;2.38;;;1.10;;
45368;SDS011;51342;55.250;37.668;2023-07-20T15:30:17;2.63;;;1.10;;
45368;SDS011;51342;55.250;37.668;2023-07-20T15:32:51;2.63;;;1.40;;
45368;SDS011;51342;55.250;37.668;2023-07-20T15:35:27;2.08;;;1.27;;
45368;SDS011;51342;55.250;37.668;2023-07-20T15:37:59;2.33;;;1.00;;
45368;SDS011;51342;55.250;37.668;2023-07-20T15:40:32;2.10;;;1.17;;
45368;SDS011;51342;55.250;37.668;2023-07-20T15:43:04;4.93;;;1.40;;
45368;SDS011;51342;55.250;37.668;2023-07-20T15:49:19;3.78;;;1.27;;
45368;SDS011;51342;55.250;37.668;2023-07-20T15:51:51;3.80;;;1.27;;
45368;SDS011;51342;55.250;37.668;2023-07-20T15:54:23;4.35;;;1.50;;
45368;SDS011;51342;55.250;37.668;2023-07-20T15:56:54;3.28;;;1.80;;
45368;SDS011;51342;55.250;37.668;2023-07-20T15:59:26;4.00;;;1.83;;
45368;SDS011;51342;55.250;37.668;2023-07-20T16:01:57;3.00;;;1.90;;
45368;SDS011;51342;55.250;37.668;2023-07-20T16:04:28;5.10;;;1.98;;
45368;SDS011;51342;55.250;37.668;2023-07-20T16:07:01;3.33;;;1.92;;
45368;SDS011;51342;55.250;37.668;2023-07-20T16:09:33;3.33;;;2.30;;
45368;SDS011;51342;55.250;37.668;2023-07-20T16:12:05;2.58;;;1.60;;
45368;SDS011;51342;55.250;37.668;2023-07-20T16:14:37;3.13;;;1.67;;
45368;SDS011;51342;55.250;37.668;2023-07-20T16:17:08;2.38;;;1.52;;
45368;SDS011;51342;55.250;37.668;2023-07-20T16:19:40;4.72;;;1.33;;
45368;SDS011;51342;55.250;37.668;2023-07-20T16:22:12;3.28;;;1.48;;
45368;SDS011;51342;55.250;37.668;2023-07-20T16:24:43;2.55;;;1.38;;
45368;SDS011;51342;55.250;37.668;2023-07-20T16:27:15;3.60;;;1.30;;
45368;SDS011;51342;55.250;37.668;2023-07-20T16:29:46;1.50;;;1.05;;
45368;SDS011;51342;55.250;37.668;2023-07-20T16:32:18;3.35;;;1.42;;
45368;SDS011;51342;55.250;37.668;2023-07-20T16:34:49;2.88;;;1.83;;
45368;SDS011;51342;55.250;37.668;2023-07-20T16:37:21;3.67;;;1.83;;
45368;SDS011;51342;55.250;37.668;2023-07-20T16:39:52;2.92;;;1.60;;
45368;SDS011;51342;55.250;37.668;2023-07-20T16:42:24;2.63;;;1.70;;
45368;SDS011;51342;55.250;37.668;2023-07-20T16:44:55;2.95;;;1.90;;
45368;SDS011;51342;55.250;37.668;2023-07-20T16:47:27;3.78;;;1.88;;
45368;SDS011;51342;55.250;37.668;2023-07-20T16:49:59;3.97;;;1.73;;
45368;SDS011;51342;55.250;37.668;2023-07-20T16:52:30;3.97;;;1.70;;
45368;SDS011;51342;55.250;37.668;2023-07-20T16:55:02;2.30;;;1.63;;
45368;SDS011;51342;55.250;37.668;2023-07-20T16:57:33;5.15;;;1.80;;
45368;SDS011;51342;55.250;37.668;2023-07-20T17:00:05;3.53;;;1.90;;
45368;SDS011;51342;55.250;37.668;2023-07-20T17:02:38;3.85;;;1.90;;
45368;SDS011;51342;55.250;37.668;2023-07-20T17:05:10;3.70;;;2.30;;
45368;SDS011;51342;55.250;37.668;2023-07-20T17:07:41;4.68;;;1.95;;
45368;SDS011;51342;55.250;37.668;2023-07-20T17:10:13;3.50;;;1.98;;
45368;SDS011;51342;55.250;37.668;2023-07-20T17:12:45;2.90;;;2.25;;
45368;SDS011;51342;55.250;37.668;2023-07-20T17:15:16;3.70;;;1.70;;
45368;SDS011;51342;55.250;37.668;2023-07-20T17:17:48;4.90;;;1.75;;
45368;SDS011;51342;55.250;37.668;2023-07-20T17:20:22;4.43;;;1.80;;
45368;SDS011;51342;55.250;37.668;2023-07-20T17:22:54;3.60;;;1.45;;
45368;SDS011;51342;55.250;37.668;2023-07-20T17:25:25;2.53;;;1.55;;
45368;SDS011;51342;55.250;37.668;2023-07-20T17:27:58;3.13;;;1.27;;
45368;SDS011;51342;55.250;37.668;2023-07-20T17:30:30;3.33;;;2.05;;
45368;SDS011;51342;55.250;37.668;2023-07-20T17:33:01;3.22;;;1.83;;
45368;SDS011;51342;55.250;37.668;2023-07-20T17:35:33;3.42;;;1.58;;
45368;SDS011;51342;55.250;37.668;2023-07-20T17:38:04;3.38;;;1.67;;
45368;SDS011;51342;55.250;37.668;2023-07-20T17:40:36;3.78;;;1.85;;
45368;SDS011;51342;55.250;37.668;2023-07-20T17:43:07;5.55;;;1.80;;
45368;SDS011;51342;55.250;37.668;2023-07-20T17:45:39;2.05;;;1.52;;
45368;SDS011;51342;55.250;37.668;2023-07-20T17:48:21;2.97;;;1.83;;
45368;SDS011;51342;55.250;37.668;2023-07-20T17:50:53;4.38;;;2.00;;
45368;SDS011;51342;55.250;37.668;2023-07-20T17:53:25;4.43;;;2.10;;
45368;SDS011;51342;55.250;37.668;2023-07-20T17:55:57;6.45;;;2.53;;
45368;SDS011;51342;55.250;37.668;2023-07-20T17:58:29;4.03;;;1.77;;
45368;SDS011;51342;55.250;37.668;2023-07-20T18:01:01;3.60;;;2.10;;
45368;SDS011;51342;55.250;37.668;2023-07-20T18:03:33;6.35;;;2.42;;
45368;SDS011;51342;55.250;37.668;2023-07-20T18:06:05;3.58;;;1.67;;
45368;SDS011;51342;55.250;37.668;2023-07-20T18:08:38;3.55;;;1.92;;
45368;SDS011;51342;55.250;37.668;2023-07-20T18:11:10;3.88;;;2.10;;